createdAt,value
2022-08-29T00:01:33.136Z,10.85
2022-08-29T00:04:04.138Z,11.38
2022-08-29T00:06:32.527Z,11.05
2022-08-29T00:09:00.586Z,11.60
2022-08-29T00:11:28.576Z,11.85
2022-08-29T00:13:56.703Z,12.30
2022-08-29T00:16:24.913Z,13.20
2022-08-29T00:18:53.058Z,13.20
2022-08-29T00:21:22.654Z,12.25
2022-08-29T00:23:50.762Z,13.18
2022-08-29T00:26:18.877Z,12.32
2022-08-29T00:28:46.994Z,12.55
2022-08-29T00:31:15.224Z,13.60
2022-08-29T00:33:43.684Z,12.75
2022-08-29T00:36:11.814Z,13.30
2022-08-29T00:38:41.827Z,14.07
2022-08-29T00:41:10.283Z,13.80
2022-08-29T00:43:39.223Z,14.30
2022-08-29T00:46:28.550Z,12.52
2022-08-29T00:49:00.125Z,12.88
2022-08-29T00:51:28.294Z,13.13
2022-08-29T00:54:02.050Z,13.27
2022-08-29T00:56:31.508Z,13.27
2022-08-29T00:59:05.186Z,12.05
2022-08-29T01:01:33.428Z,12.98
2022-08-29T01:04:01.973Z,13.23
2022-08-29T01:06:35.114Z,13.13
2022-08-29T01:09:05.914Z,13.40
2022-08-29T01:11:51.807Z,13.70
2022-08-29T01:14:22.960Z,14.57
2022-08-29T01:16:53.292Z,16.23
2022-08-29T01:19:33.592Z,14.45
2022-08-29T01:22:14.918Z,14.68
2022-08-29T01:24:50.780Z,14.82
2022-08-29T01:27:21.206Z,16.10
2022-08-29T01:29:50.261Z,15.35
2022-08-29T01:32:18.388Z,15.48
2022-08-29T01:34:46.494Z,14.43
2022-08-29T01:37:17.207Z,15.45
2022-08-29T01:39:47.767Z,15.18
2022-08-29T01:42:18.433Z,15.38
2022-08-29T01:44:51.124Z,14.25
2022-08-29T01:47:21.456Z,13.33
2022-08-29T01:49:49.538Z,13.63
2022-08-29T01:52:17.813Z,13.90
2022-08-29T01:54:47.900Z,14.80
2022-08-29T01:57:16.998Z,14.25
2022-08-29T01:59:45.757Z,14.40
2022-08-29T02:02:18.340Z,13.60
2022-08-29T02:04:47.342Z,14.10
2022-08-29T02:07:17.624Z,15.10
2022-08-29T02:09:48.228Z,16.10
2022-08-29T02:12:17.606Z,15.13
2022-08-29T02:14:45.929Z,15.88
2022-08-29T02:17:14.055Z,16.00
2022-08-29T02:19:43.571Z,14.98
2022-08-29T02:22:12.138Z,16.80
2022-08-29T02:24:40.377Z,15.80
2022-08-29T02:27:10.530Z,15.07
2022-08-29T02:29:39.623Z,16.15
2022-08-29T02:32:09.429Z,15.02
2022-08-29T02:34:37.923Z,16.92
2022-08-29T02:37:07.526Z,16.40
2022-08-29T02:39:35.862Z,15.65
2022-08-29T02:42:04.790Z,16.48
2022-08-29T02:44:34.241Z,15.10
2022-08-29T02:47:02.360Z,14.68
2022-08-29T02:49:30.504Z,15.95
2022-08-29T02:51:58.969Z,14.98
2022-08-29T02:54:27.289Z,15.57
2022-08-29T02:56:55.391Z,17.23
2022-08-29T02:59:23.471Z,15.02
2022-08-29T03:01:53.654Z,16.20
2022-08-29T03:04:21.914Z,16.65
2022-08-29T03:06:50.393Z,15.43
2022-08-29T03:09:18.446Z,14.15
2022-08-29T03:11:46.480Z,17.60
2022-08-29T03:14:14.588Z,16.38
2022-08-29T03:16:44.211Z,18.17
2022-08-29T03:19:13.700Z,17.58
2022-08-29T03:21:42.079Z,16.33
2022-08-29T03:24:10.146Z,18.80
2022-08-29T03:26:38.872Z,15.07
2022-08-29T03:29:06.993Z,17.10
2022-08-29T03:31:35.765Z,16.50
2022-08-29T03:34:04.925Z,16.10
2022-08-29T03:36:34.513Z,14.05
2022-08-29T03:39:02.715Z,15.75
2022-08-29T03:41:31.241Z,15.95
2022-08-29T03:44:00.263Z,15.45
2022-08-29T03:46:29.394Z,16.25
2022-08-29T03:48:57.556Z,15.25
2022-08-29T03:51:28.657Z,14.10
2022-08-29T03:53:59.698Z,14.40
2022-08-29T03:56:28.951Z,15.68
2022-08-29T03:58:58.408Z,15.73
2022-08-29T04:01:29.202Z,16.85
2022-08-29T04:03:58.661Z,18.20
2022-08-29T04:06:28.700Z,17.67
2022-08-29T04:08:59.140Z,17.48
2022-08-29T04:11:28.942Z,17.88
2022-08-29T04:13:57.220Z,16.80
2022-08-29T04:16:30.964Z,16.35
2022-08-29T04:19:00.076Z,15.70
2022-08-29T04:21:28.239Z,16.63
2022-08-29T04:23:56.520Z,16.85
2022-08-29T04:26:41.489Z,17.40
2022-08-29T04:29:11.308Z,15.70
2022-08-29T04:31:40.594Z,16.27
2022-08-29T04:34:10.653Z,17.23
2022-08-29T04:36:39.933Z,16.90
2022-08-29T04:39:08.123Z,16.20
2022-08-29T04:41:38.664Z,16.05
2022-08-29T04:44:08.207Z,17.45
2022-08-29T04:46:36.493Z,17.75
2022-08-29T04:49:04.752Z,17.88
2022-08-29T04:51:34.465Z,18.50
2022-08-29T04:54:03.290Z,19.08
2022-08-29T04:56:31.457Z,19.17
2022-08-29T04:59:01.138Z,18.95
2022-08-29T05:01:29.310Z,19.05
2022-08-29T05:03:58.066Z,19.40
2022-08-29T05:06:28.279Z,17.90
2022-08-29T05:08:59.725Z,17.17
2022-08-29T05:11:29.842Z,17.08
2022-08-29T05:13:58.262Z,15.38
2022-08-29T05:16:29.979Z,13.52
2022-08-29T05:18:59.965Z,12.85
2022-08-29T05:21:35.060Z,12.63
2022-08-29T05:24:05.506Z,12.15
2022-08-29T05:26:36.001Z,11.07
2022-08-29T05:29:04.290Z,12.13
2022-08-29T05:31:38.200Z,13.88
2022-08-29T05:34:14.101Z,13.30
2022-08-29T05:36:55.229Z,15.85
2022-08-29T05:39:23.333Z,14.55
2022-08-29T05:41:51.476Z,14.52
2022-08-29T05:44:19.614Z,16.05
2022-08-29T05:46:49.815Z,16.05
2022-08-29T05:49:18.417Z,15.85
2022-08-29T05:51:46.584Z,15.13
2022-08-29T05:54:14.705Z,13.80
2022-08-29T05:56:43.075Z,15.30
2022-08-29T05:59:13.629Z,13.88
2022-08-29T06:01:41.903Z,13.48
2022-08-29T06:04:11.487Z,12.88
2022-08-29T06:06:41.544Z,11.80
2022-08-29T06:09:10.387Z,13.98
2022-08-29T06:11:38.492Z,14.27
2022-08-29T06:14:07.253Z,11.38
2022-08-29T06:16:35.444Z,12.02
2022-08-29T06:19:03.620Z,11.13
2022-08-29T06:21:33.395Z,12.27
2022-08-29T06:24:01.600Z,11.40
2022-08-29T06:26:31.578Z,11.05
2022-08-29T06:28:59.815Z,11.70
2022-08-29T06:31:29.505Z,12.70
2022-08-29T06:33:59.724Z,9.82
2022-08-29T06:36:28.948Z,9.05
2022-08-29T06:38:59.191Z,10.02
2022-08-29T06:41:28.135Z,6.97
2022-08-29T06:43:57.997Z,11.23
2022-08-29T06:46:28.797Z,11.25
2022-08-29T06:48:58.148Z,11.30
2022-08-29T06:51:27.674Z,11.93
2022-08-29T06:53:55.760Z,15.95
2022-08-29T06:56:25.258Z,26.77
2022-08-29T06:58:54.865Z,11.38
2022-08-29T07:01:24.151Z,10.98
2022-08-29T07:03:54.451Z,9.85
2022-08-29T07:06:23.447Z,21.08
2022-08-29T07:08:55.169Z,16.17
2022-08-29T07:11:26.790Z,21.60
2022-08-29T07:13:58.289Z,9.93
2022-08-29T07:16:26.594Z,12.27
2022-08-29T07:18:54.990Z,9.73
2022-08-29T07:21:25.197Z,10.93
2022-08-29T07:23:54.816Z,14.98
2022-08-29T07:26:26.750Z,11.55
2022-08-29T07:28:57.400Z,28.65
2022-08-29T07:31:27.341Z,17.38
2022-08-29T07:34:02.830Z,13.98
2022-08-29T07:36:31.928Z,19.13
2022-08-29T07:38:59.929Z,15.40
2022-08-29T07:41:29.760Z,14.30
2022-08-29T07:43:59.023Z,15.50
2022-08-29T07:46:27.331Z,19.23
2022-08-29T07:48:55.662Z,30.30
2022-08-29T07:51:27.373Z,26.15
2022-08-29T07:53:55.981Z,25.83
2022-08-29T07:56:26.493Z,83.43
2022-08-29T07:58:57.129Z,17.17
2022-08-29T08:01:25.945Z,23.88
2022-08-29T08:03:54.919Z,43.75
2022-08-29T08:06:27.693Z,29.70
2022-08-29T08:08:56.581Z,41.55
2022-08-29T08:11:26.110Z,51.78
2022-08-29T08:13:56.675Z,20.42
2022-08-29T08:16:27.082Z,28.38
2022-08-29T08:18:55.982Z,16.17
2022-08-29T08:21:25.068Z,15.85
2022-08-29T08:23:53.547Z,62.83
2022-08-29T08:26:22.069Z,51.40
2022-08-29T08:28:50.280Z,39.60
2022-08-29T08:31:20.494Z,31.95
2022-08-29T08:33:49.138Z,56.40
2022-08-29T08:36:19.595Z,36.67
2022-08-29T08:38:48.067Z,50.22
2022-08-29T08:41:32.281Z,46.63
2022-08-29T08:44:05.379Z,63.30
2022-08-29T08:46:40.418Z,11.25
2022-08-29T08:49:13.584Z,42.97
2022-08-29T08:51:51.186Z,45.33
2022-08-29T08:54:28.428Z,45.15
2022-08-29T08:57:04.811Z,24.88
2022-08-29T08:59:39.495Z,56.75
2022-08-29T09:02:16.814Z,50.15
2022-08-29T09:04:59.880Z,56.75
2022-08-29T09:07:43.698Z,11.95
2022-08-29T09:10:19.853Z,59.40
2022-08-29T09:12:57.189Z,44.22
2022-08-29T09:15:32.846Z,26.63
2022-08-29T09:18:06.510Z,20.25
2022-08-29T09:20:37.583Z,29.55
2022-08-29T09:23:12.323Z,32.55
2022-08-29T09:25:40.840Z,68.93
2022-08-29T09:28:10.324Z,27.83
2022-08-29T09:30:42.517Z,79.93
2022-08-29T09:33:14.435Z,89.93
2022-08-29T09:35:45.746Z,91.65
2022-08-29T09:38:21.699Z,40.83
2022-08-29T09:40:55.608Z,23.55
2022-08-29T09:43:28.068Z,77.43
2022-08-29T09:46:17.730Z,66.28
2022-08-29T09:48:49.321Z,115.75
2022-08-29T09:51:28.430Z,17.35
2022-08-29T09:54:12.798Z,28.13
2022-08-29T09:56:49.929Z,54.88
2022-08-29T09:59:24.848Z,24.50
2022-08-29T10:02:12.452Z,111.82
2022-08-29T10:04:44.985Z,66.75
2022-08-29T10:07:17.720Z,83.95
2022-08-29T10:09:55.015Z,74.97
2022-08-29T10:12:33.116Z,101.53
2022-08-29T10:15:06.107Z,23.45
2022-08-29T10:17:57.200Z,89.40
2022-08-29T10:20:41.087Z,62.13
2022-08-29T10:23:20.623Z,48.70
2022-08-29T10:25:48.884Z,57.72
2022-08-29T10:28:26.383Z,115.60
2022-08-29T10:31:00.590Z,44.55
2022-08-29T10:33:49.368Z,96.18
2022-08-29T10:36:23.255Z,81.88
2022-08-29T10:38:56.488Z,109.05
2022-08-29T10:41:33.550Z,23.15
2022-08-29T10:47:16.341Z,121.80
2022-08-29T10:49:59.307Z,130.32
2022-08-29T10:52:35.202Z,84.13
2022-08-29T10:55:13.322Z,165.80
2022-08-29T10:57:54.442Z,124.78
2022-08-29T11:00:24.425Z,132.88
2022-08-29T11:03:00.852Z,176.07
2022-08-29T11:05:40.611Z,38.65
2022-08-29T11:08:16.590Z,30.33
2022-08-29T11:10:49.908Z,108.47
2022-08-29T11:13:23.358Z,112.63
2022-08-29T11:16:01.972Z,102.63
2022-08-29T11:18:37.861Z,247.00
2022-08-29T11:21:17.495Z,139.60
2022-08-29T11:23:49.474Z,227.38
2022-08-29T11:26:29.920Z,204.32
2022-08-29T11:29:03.358Z,110.95
2022-08-29T11:31:46.190Z,274.65
2022-08-29T11:34:28.971Z,209.25
2022-08-29T11:37:24.150Z,174.48
2022-08-29T11:39:59.822Z,144.02
2022-08-29T11:45:35.600Z,187.63
2022-08-29T11:48:30.692Z,45.95
2022-08-29T11:50:59.544Z,72.15
2022-08-29T11:53:35.182Z,91.60
2022-08-29T11:56:28.195Z,65.88
2022-08-29T11:58:57.373Z,31.20
2022-08-29T12:02:00.653Z,183.35
2022-08-29T12:04:52.014Z,92.25
2022-08-29T12:07:21.386Z,57.58
2022-08-29T12:09:53.352Z,154.52
2022-08-29T12:12:43.836Z,106.18
2022-08-29T12:15:53.693Z,32.80
2022-08-29T12:18:42.405Z,15.18
2022-08-29T12:21:43.028Z,132.52
2022-08-29T12:24:42.939Z,151.05
2022-08-29T12:27:25.553Z,155.60
2022-08-29T12:29:55.404Z,59.60
2022-08-29T12:32:45.584Z,154.85
2022-08-29T12:35:33.180Z,149.45
2022-08-29T12:38:18.212Z,112.32
2022-08-29T12:40:57.171Z,140.57
2022-08-29T12:43:36.418Z,140.05
2022-08-29T12:46:14.145Z,123.55
2022-08-29T12:48:49.686Z,115.40
2022-08-29T12:51:37.551Z,97.20
2022-08-29T12:54:07.303Z,24.42
2022-08-29T12:56:35.945Z,13.13
2022-08-29T12:59:05.940Z,32.97
2022-08-29T13:01:38.688Z,95.03
2022-08-29T13:04:15.038Z,36.10
2022-08-29T13:06:53.209Z,102.60
2022-08-29T13:09:26.768Z,12.25
2022-08-29T13:12:09.131Z,69.73
2022-08-29T13:14:49.254Z,26.77
2022-08-29T13:17:22.241Z,23.08
2022-08-29T13:20:27.691Z,18.30
2022-08-29T13:23:20.146Z,19.85
2022-08-29T13:25:51.467Z,35.38
2022-08-29T13:28:24.971Z,13.63
2022-08-29T13:31:31.218Z,33.30
2022-08-29T13:34:27.753Z,59.15
2022-08-29T13:37:02.329Z,13.88
2022-08-29T13:39:45.840Z,18.92
2022-08-29T13:42:27.394Z,19.83
2022-08-29T13:45:17.735Z,20.90
2022-08-29T13:48:09.258Z,26.90
2022-08-29T13:50:38.676Z,35.78
2022-08-29T13:53:07.007Z,31.23
2022-08-29T13:55:35.378Z,20.05
2022-08-29T13:58:04.574Z,14.45
2022-08-29T14:00:35.450Z,14.63
2022-08-29T14:03:05.612Z,14.63
2022-08-29T14:05:35.318Z,31.85
2022-08-29T14:08:06.624Z,38.00
2022-08-29T14:10:35.294Z,16.20
2022-08-29T14:13:03.961Z,22.00
2022-08-29T14:15:32.813Z,32.17
2022-08-29T14:18:01.122Z,12.18
2022-08-29T14:20:29.363Z,18.30
2022-08-29T14:22:57.458Z,39.38
2022-08-29T14:25:27.402Z,22.33
2022-08-29T14:27:55.658Z,14.52
2022-08-29T14:30:24.872Z,18.95
2022-08-29T14:32:53.293Z,50.83
2022-08-29T14:35:26.801Z,17.42
2022-08-29T14:38:00.128Z,20.25
2022-08-29T14:40:30.614Z,14.88
2022-08-29T14:42:59.042Z,21.67
2022-08-29T14:45:27.508Z,14.63
2022-08-29T14:47:55.705Z,28.20
2022-08-29T14:50:24.589Z,13.43
2022-08-29T14:52:53.566Z,13.52
2022-08-29T14:55:22.294Z,16.02
2022-08-29T14:57:51.901Z,15.23
2022-08-29T15:00:23.089Z,13.95
2022-08-29T15:02:51.276Z,19.75
2022-08-29T15:05:19.954Z,17.33
2022-08-29T15:07:48.138Z,17.40
2022-08-29T15:10:18.563Z,23.23
2022-08-29T15:12:46.882Z,47.95
2022-08-29T15:15:16.400Z,49.40
2022-08-29T15:17:44.802Z,32.75
2022-08-29T15:23:02.238Z,99.20
2022-08-29T15:25:30.292Z,150.32
2022-08-29T15:27:58.390Z,51.88
2022-08-29T15:30:27.904Z,28.02
2022-08-29T15:32:55.964Z,71.38
2022-08-29T15:35:24.396Z,157.95
2022-08-29T15:37:54.378Z,73.72
2022-08-29T15:40:22.803Z,58.50
2022-08-29T15:42:51.086Z,133.18
2022-08-29T15:45:19.289Z,140.95
2022-08-29T15:47:53.955Z,54.33
2022-08-29T15:50:23.589Z,48.75
2022-08-29T15:52:51.713Z,82.55
2022-08-29T15:55:21.233Z,51.00
2022-08-29T15:57:51.394Z,33.97
2022-08-29T16:00:30.761Z,61.67
2022-08-29T16:03:05.072Z,55.28
2022-08-29T16:05:34.826Z,20.52
2022-08-29T16:08:03.777Z,32.30
2022-08-29T16:10:32.548Z,39.40
2022-08-29T16:13:00.926Z,18.15
2022-08-29T16:15:31.134Z,18.10
2022-08-29T16:18:00.142Z,16.08
2022-08-29T16:20:30.422Z,14.73
2022-08-29T16:22:58.657Z,15.05
2022-08-29T16:25:27.622Z,14.30
2022-08-29T16:27:57.242Z,16.83
2022-08-29T16:30:25.432Z,23.70
2022-08-29T16:32:54.844Z,15.63
2022-08-29T16:35:23.539Z,16.27
2022-08-29T16:38:03.166Z,15.52
2022-08-29T16:40:32.379Z,13.98
2022-08-29T16:43:01.631Z,15.05
2022-08-29T16:45:29.730Z,19.92
2022-08-29T16:47:57.919Z,27.73
2022-08-29T16:50:27.356Z,15.43
2022-08-29T16:52:56.940Z,16.30
2022-08-29T16:55:25.843Z,14.27
2022-08-29T16:58:11.201Z,20.83
2022-08-29T17:00:40.388Z,23.38
2022-08-29T17:03:08.911Z,35.92
2022-08-29T17:05:37.406Z,34.72
2022-08-29T17:08:05.749Z,29.63
2022-08-29T17:10:32.687Z,15.80
2022-08-29T17:12:59.608Z,22.73
2022-08-29T17:15:27.698Z,16.52
2022-08-29T17:17:56.305Z,46.85
2022-08-29T17:20:24.957Z,20.25
2022-08-29T17:22:53.550Z,14.90
2022-08-29T17:25:24.105Z,13.65
2022-08-29T17:28:17.769Z,14.63
2022-08-29T17:30:40.647Z,26.02
2022-08-29T17:33:10.772Z,14.10
2022-08-29T17:35:39.302Z,13.48
2022-08-29T17:38:08.469Z,19.98
2022-08-29T17:40:38.646Z,16.73
2022-08-29T17:43:09.109Z,18.92
2022-08-29T17:45:38.780Z,14.65
2022-08-29T17:48:06.925Z,15.68
2022-08-29T17:50:36.367Z,14.45
2022-08-29T17:53:05.544Z,14.27
2022-08-29T17:55:33.701Z,13.25
2022-08-29T17:58:03.187Z,12.50
2022-08-29T18:00:31.564Z,12.15
2022-08-29T18:03:00.083Z,12.40
2022-08-29T18:05:28.285Z,13.77
2022-08-29T18:07:56.979Z,12.05
2022-08-29T18:10:25.546Z,12.30
2022-08-29T18:12:53.596Z,11.98
2022-08-29T18:15:23.575Z,14.18
2022-08-29T18:17:51.976Z,14.45
2022-08-29T18:20:21.732Z,14.20
2022-08-29T18:22:49.908Z,13.63
2022-08-29T18:25:22.615Z,12.60
2022-08-29T18:27:51.434Z,12.82
2022-08-29T18:30:20.386Z,15.35
2022-08-29T18:32:50.426Z,23.20
2022-08-29T18:35:19.196Z,15.95
2022-08-29T18:37:47.423Z,13.70
2022-08-29T18:40:15.893Z,17.73
2022-08-29T18:42:44.190Z,13.88
2022-08-29T18:45:13.020Z,13.98
2022-08-29T18:47:41.721Z,16.63
2022-08-29T18:50:29.303Z,14.32
2022-08-29T18:52:57.547Z,14.43
2022-08-29T18:55:25.979Z,14.55
2022-08-29T18:57:54.567Z,15.52
2022-08-29T19:00:25.033Z,13.50
2022-08-29T19:02:53.274Z,13.68
2022-08-29T19:05:24.406Z,13.05
2022-08-29T19:07:53.280Z,12.95
2022-08-29T19:10:22.361Z,14.38
2022-08-29T19:12:50.577Z,15.27
2022-08-29T19:15:20.483Z,17.75
2022-08-29T19:17:48.671Z,15.52
2022-08-29T19:20:38.255Z,15.63
2022-08-29T19:23:08.871Z,16.13
2022-08-29T19:25:37.582Z,17.80
2022-08-29T19:28:06.378Z,15.68
2022-08-29T19:30:35.125Z,14.98
2022-08-29T19:33:03.180Z,18.30
2022-08-29T19:35:31.365Z,17.33
2022-08-29T19:37:59.644Z,19.17
2022-08-29T19:40:32.642Z,14.90
2022-08-29T19:43:03.747Z,15.23
2022-08-29T19:45:43.247Z,15.15
2022-08-29T19:48:14.905Z,14.30
2022-08-29T19:50:47.723Z,13.52
2022-08-29T19:53:24.569Z,15.70
2022-08-29T19:55:56.636Z,13.88
2022-08-29T19:58:31.231Z,15.48
2022-08-29T20:00:59.982Z,14.77
2022-08-29T20:03:28.918Z,16.55
2022-08-29T20:05:57.241Z,15.18
2022-08-29T20:08:25.398Z,17.20
2022-08-29T20:10:53.550Z,17.08
2022-08-29T20:13:23.081Z,18.00
2022-08-29T20:15:52.329Z,16.85
2022-08-29T20:18:21.309Z,18.20
2022-08-29T20:20:49.752Z,19.05
2022-08-29T20:23:18.080Z,18.80
2022-08-29T20:25:47.150Z,18.48
2022-08-29T20:28:15.978Z,14.93
2022-08-29T20:30:46.001Z,15.60
2022-08-29T20:33:18.236Z,14.80
2022-08-29T20:36:03.935Z,16.45
2022-08-29T20:38:33.297Z,16.70
2022-08-29T20:41:01.591Z,18.85
2022-08-29T20:43:29.975Z,17.88
2022-08-29T20:46:00.931Z,17.88
2022-08-29T20:48:31.196Z,18.40
2022-08-29T20:51:01.410Z,18.42
2022-08-29T20:53:32.490Z,19.27
2022-08-29T20:56:01.212Z,18.58
2022-08-29T20:58:30.150Z,18.73
2022-08-29T21:01:01.062Z,19.05
2022-08-29T21:03:46.587Z,18.55
2022-08-29T21:06:18.979Z,19.35
2022-08-29T21:08:47.032Z,18.02
2022-08-29T21:11:15.683Z,19.35
2022-08-29T21:13:44.286Z,18.30
2022-08-29T21:16:13.850Z,19.85
2022-08-29T21:18:42.038Z,19.42
2022-08-29T21:21:13.534Z,19.80
2022-08-29T21:23:42.113Z,19.70
2022-08-29T21:26:11.663Z,20.67
2022-08-29T21:28:39.898Z,20.48
2022-08-29T21:31:11.985Z,19.88
2022-08-29T21:33:43.275Z,20.95
2022-08-29T21:36:12.328Z,19.02
2022-08-29T21:38:40.518Z,19.98
2022-08-29T21:41:09.946Z,20.30
2022-08-29T21:43:38.489Z,19.02
2022-08-29T21:46:15.435Z,19.23
2022-08-29T21:48:45.454Z,20.70
2022-08-29T21:51:14.971Z,19.65
2022-08-29T21:53:43.061Z,21.30
2022-08-29T21:56:11.125Z,20.80
2022-08-29T21:58:39.697Z,21.05
2022-08-29T22:01:09.381Z,19.30
2022-08-29T22:03:37.527Z,16.45
2022-08-29T22:06:09.225Z,23.95
2022-08-29T22:08:39.935Z,21.20
2022-08-29T22:11:15.053Z,19.40
2022-08-29T22:13:43.381Z,18.95
2022-08-29T22:16:29.666Z,20.77
2022-08-29T22:19:02.297Z,19.52
2022-08-29T22:21:34.546Z,20.60
2022-08-29T22:24:03.462Z,19.85
2022-08-29T22:26:31.626Z,20.38
2022-08-29T22:28:59.737Z,20.17
2022-08-29T22:31:28.056Z,18.48
2022-08-29T22:33:56.144Z,20.88
2022-08-29T22:36:24.708Z,20.02
2022-08-29T22:38:56.326Z,21.08
2022-08-29T22:41:25.892Z,21.60
2022-08-29T22:44:31.608Z,19.77
2022-08-29T22:46:45.275Z,29.92
2022-08-29T22:49:13.665Z,21.55
2022-08-29T22:51:41.881Z,20.65
2022-08-29T22:54:28.743Z,20.98
2022-08-29T22:56:57.040Z,20.08
2022-08-29T22:59:25.113Z,22.15
2022-08-29T23:01:53.421Z,22.77
2022-08-29T23:04:21.584Z,23.13
2022-08-29T23:06:49.594Z,21.70
2022-08-29T23:09:19.161Z,22.83
2022-08-29T23:11:47.475Z,23.38
2022-08-29T23:14:16.107Z,22.10
2022-08-29T23:16:49.179Z,21.65
2022-08-29T23:19:17.282Z,19.05
2022-08-29T23:21:45.819Z,19.75
2022-08-29T23:24:14.342Z,23.73
2022-08-29T23:26:43.892Z,29.83
2022-08-29T23:29:11.932Z,28.00
2022-08-29T23:31:40.090Z,26.48
2022-08-29T23:34:08.574Z,27.90
2022-08-29T23:36:36.634Z,28.20
2022-08-29T23:39:05.926Z,30.25
2022-08-29T23:41:34.603Z,27.85
2022-08-29T23:44:04.766Z,28.70
2022-08-29T23:46:32.791Z,28.48
2022-08-29T23:49:00.994Z,29.50
2022-08-29T23:51:29.689Z,29.73
2022-08-29T23:53:58.080Z,29.95
2022-08-29T23:56:26.483Z,28.90
2022-08-29T23:58:56.770Z,27.70
